createdAt,value
2019-05-23T00:00:38.136Z,15.10
2019-05-23T00:06:06.783Z,15.10
2019-05-23T00:11:32.819Z,15.00
2019-05-23T00:16:40.642Z,15.00
2019-05-23T00:21:47.006Z,15.00
2019-05-23T00:26:53.210Z,14.90
2019-05-23T00:32:04.240Z,14.80
2019-05-23T00:37:12.639Z,14.80
2019-05-23T00:42:19.580Z,14.90
2019-05-23T00:47:25.637Z,14.80
2019-05-23T00:52:32.235Z,14.80
2019-05-23T00:57:39.811Z,14.80
2019-05-23T01:02:46.111Z,14.80
2019-05-23T01:07:52.587Z,14.80
2019-05-23T01:12:58.174Z,14.80
2019-05-23T01:18:04.249Z,14.70
2019-05-23T01:23:11.794Z,14.80
2019-05-23T01:28:19.009Z,14.80
2019-05-23T01:33:25.472Z,14.60
2019-05-23T01:38:31.857Z,14.40
2019-05-23T01:43:38.066Z,14.30
2019-05-23T01:48:43.879Z,14.20
2019-05-23T01:53:50.726Z,14.20
2019-05-23T01:58:56.494Z,14.20
2019-05-23T02:04:02.606Z,14.10
2019-05-23T02:09:09.311Z,13.90
2019-05-23T02:14:14.961Z,13.80
2019-05-23T02:19:20.918Z,13.70
2019-05-23T02:24:26.833Z,13.70
2019-05-23T02:29:33.047Z,13.60
2019-05-23T02:34:40.671Z,13.50
2019-05-23T02:39:58.918Z,13.60
2019-05-23T02:45:06.604Z,13.50
2019-05-23T02:50:18.407Z,13.40
2019-05-23T02:55:34.656Z,13.30
2019-05-23T03:01:09.442Z,13.20
2019-05-23T03:06:20.146Z,13.30
2019-05-23T03:11:39.119Z,13.40
2019-05-23T03:16:48.522Z,13.20
2019-05-23T03:21:58.667Z,13.10
2019-05-23T03:27:09.852Z,13.10
2019-05-23T03:32:48.083Z,13.20
2019-05-23T03:37:55.810Z,13.20
2019-05-23T03:43:02.093Z,13.30
2019-05-23T03:48:08.826Z,13.30
2019-05-23T03:53:15.128Z,13.40
2019-05-23T03:58:21.290Z,13.30
2019-05-23T04:03:29.793Z,13.20
2019-05-23T04:08:35.661Z,13.10
2019-05-23T04:13:41.700Z,13.00
2019-05-23T04:18:48.350Z,13.10
2019-05-23T04:23:55.906Z,13.10
2019-05-23T04:29:01.988Z,13.00
2019-05-23T04:34:08.188Z,12.90
2019-05-23T04:39:14.744Z,12.80
2019-05-23T04:44:20.925Z,12.80
2019-05-23T04:49:28.001Z,13.00
2019-05-23T04:54:33.861Z,13.10
2019-05-23T04:59:39.911Z,13.10
2019-05-23T05:04:47.324Z,13.30
2019-05-23T05:09:53.435Z,13.40
2019-05-23T05:14:59.813Z,13.50
2019-05-23T05:20:06.906Z,13.70
2019-05-23T05:25:15.903Z,13.80
2019-05-23T05:30:22.460Z,13.90
2019-05-23T05:35:30.130Z,14.00
2019-05-23T05:40:35.918Z,14.10
2019-05-23T05:45:42.418Z,14.10
2019-05-23T05:50:47.990Z,14.20
2019-05-23T05:55:53.744Z,14.40
2019-05-23T06:01:05.325Z,14.50
2019-05-23T06:06:42.838Z,14.60
2019-05-23T06:11:48.930Z,14.70
2019-05-23T06:16:56.119Z,14.70
2019-05-23T06:22:02.670Z,14.80
2019-05-23T06:27:13.301Z,14.90
2019-05-23T06:32:21.020Z,15.00
2019-05-23T06:37:26.648Z,15.10
2019-05-23T06:42:32.672Z,15.20
2019-05-23T06:47:39.424Z,15.30
2019-05-23T06:52:45.165Z,15.30
2019-05-23T06:57:50.987Z,15.40
2019-05-23T07:02:57.428Z,15.50
2019-05-23T07:08:04.053Z,15.60
2019-05-23T07:13:09.625Z,15.60
2019-05-23T07:18:15.922Z,15.70
2019-05-23T07:23:21.966Z,15.80
2019-05-23T07:28:27.972Z,15.90
2019-05-23T07:33:33.878Z,16.10
2019-05-23T07:38:39.464Z,16.30
2019-05-23T07:43:45.768Z,16.30
2019-05-23T07:48:52.133Z,16.50
2019-05-23T07:54:34.739Z,16.70
2019-05-23T07:59:42.033Z,16.80
2019-05-23T08:04:49.421Z,17.00
2019-05-23T08:09:55.558Z,17.20
2019-05-23T08:15:01.580Z,17.50
2019-05-23T08:20:07.511Z,17.80
2019-05-23T08:25:13.614Z,17.90
2019-05-23T08:30:19.693Z,18.10
2019-05-23T08:35:26.012Z,18.20
2019-05-23T08:40:33.352Z,18.40
2019-05-23T08:45:39.235Z,18.60
2019-05-23T08:50:45.248Z,19.00
2019-05-23T08:55:51.132Z,19.30
2019-05-23T09:00:57.601Z,19.50
2019-05-23T09:06:03.503Z,19.70
2019-05-23T09:11:09.625Z,19.80
2019-05-23T09:16:16.165Z,19.90
2019-05-23T09:21:22.484Z,19.70
2019-05-23T09:26:28.384Z,19.60
2019-05-23T09:31:35.010Z,19.50
2019-05-23T09:36:40.972Z,19.60
2019-05-23T09:41:47.338Z,19.70
2019-05-23T09:46:53.004Z,20.00
2019-05-23T09:52:01.153Z,20.30
2019-05-23T09:57:07.527Z,20.40
2019-05-23T10:02:14.102Z,20.50
2019-05-23T10:07:19.887Z,20.60
2019-05-23T10:12:25.567Z,20.70
2019-05-23T10:17:31.722Z,20.80
2019-05-23T10:22:37.525Z,21.00
2019-05-23T10:27:43.364Z,21.10
2019-05-23T10:32:48.942Z,21.10
2019-05-23T10:37:54.600Z,21.10
2019-05-23T10:43:00.341Z,21.10
2019-05-23T10:48:07.057Z,21.30
2019-05-23T10:53:15.771Z,21.40
2019-05-23T10:58:22.174Z,21.40
2019-05-23T11:03:29.959Z,21.30
2019-05-23T11:08:36.314Z,21.50
2019-05-23T11:13:42.113Z,21.60
2019-05-23T11:18:48.077Z,21.70
2019-05-23T11:23:55.391Z,21.70
2019-05-23T11:29:01.641Z,21.80
2019-05-23T11:34:07.429Z,21.80
2019-05-23T11:39:15.075Z,21.90
2019-05-23T11:44:20.748Z,21.90
2019-05-23T11:49:26.912Z,21.90
2019-05-23T11:54:33.187Z,21.90
2019-05-23T11:59:38.970Z,22.10
2019-05-23T12:04:45.326Z,22.30
2019-05-23T12:09:51.038Z,22.30
2019-05-23T12:14:59.722Z,22.30
2019-05-23T12:20:06.932Z,22.60
2019-05-23T12:25:21.744Z,22.80
2019-05-23T12:30:22.576Z,22.90
2019-05-23T12:35:28.657Z,23.00
2019-05-23T12:40:34.410Z,23.10
2019-05-23T12:45:40.293Z,23.10
2019-05-23T12:50:46.086Z,22.90
2019-05-23T12:55:51.851Z,22.70
2019-05-23T13:01:00.147Z,22.70
2019-05-23T13:06:06.100Z,22.70
2019-05-23T13:11:11.953Z,22.60
2019-05-23T13:16:17.615Z,22.70
2019-05-23T13:21:23.282Z,22.60
2019-05-23T13:26:29.467Z,22.90
2019-05-23T13:31:35.382Z,23.20
2019-05-23T13:36:41.106Z,23.40
2019-05-23T13:41:46.631Z,23.70
2019-05-23T13:46:53.249Z,23.70
2019-05-23T13:51:58.942Z,23.90
2019-05-23T13:57:06.272Z,23.80
2019-05-23T14:02:12.113Z,23.90
2019-05-23T14:07:18.934Z,24.10
2019-05-23T14:12:25.023Z,24.10
2019-05-23T14:17:38.980Z,24.00
2019-05-23T14:22:50.075Z,24.10
2019-05-23T14:28:03.543Z,23.80
2019-05-23T14:33:20.543Z,23.60
2019-05-23T14:38:30.931Z,23.70
2019-05-23T14:43:35.714Z,23.80
2019-05-23T14:49:04.014Z,24.00
2019-05-23T14:54:34.589Z,23.90
2019-05-23T14:59:40.859Z,24.00
2019-05-23T15:04:46.804Z,23.90
2019-05-23T15:09:52.493Z,23.90
2019-05-23T15:14:58.076Z,23.90
2019-05-23T15:20:03.800Z,23.80
2019-05-23T15:25:09.468Z,23.70
2019-05-23T15:30:15.693Z,23.80
2019-05-23T15:35:21.671Z,23.90
2019-05-23T15:40:27.670Z,23.80
2019-05-23T15:45:33.493Z,23.70
2019-05-23T15:50:44.837Z,23.70
2019-05-23T15:56:28.174Z,23.70
2019-05-23T16:01:43.060Z,23.70
2019-05-23T16:06:49.314Z,23.60
2019-05-23T16:11:55.130Z,23.40
2019-05-23T16:17:00.969Z,23.20
2019-05-23T16:22:06.774Z,23.20
2019-05-23T16:27:12.820Z,23.10
2019-05-23T16:32:18.680Z,23.10
2019-05-23T16:37:24.410Z,23.10
2019-05-23T16:42:30.740Z,23.20
2019-05-23T16:47:36.886Z,23.20
2019-05-23T16:52:42.668Z,23.10
2019-05-23T16:57:55.149Z,22.90
2019-05-23T17:03:19.158Z,22.90
2019-05-23T17:08:51.874Z,22.80
2019-05-23T17:14:08.259Z,22.50
2019-05-23T17:19:26.901Z,22.40
2019-05-23T17:24:48.122Z,22.40
2019-05-23T17:30:12.452Z,22.30
2019-05-23T17:35:18.499Z,22.20
2019-05-23T17:40:25.511Z,22.10
2019-05-23T17:45:32.062Z,22.10
2019-05-23T17:50:37.651Z,22.10
2019-05-23T17:55:43.644Z,22.00
2019-05-23T18:00:49.846Z,21.90
2019-05-23T18:05:56.127Z,21.80
2019-05-23T18:11:02.112Z,21.70
2019-05-23T18:16:07.849Z,21.70
2019-05-23T18:21:13.847Z,21.70
2019-05-23T18:26:19.559Z,21.70
2019-05-23T18:31:27.776Z,21.70
2019-05-23T18:36:33.420Z,21.50
2019-05-23T18:41:39.758Z,21.40
2019-05-23T18:46:48.817Z,21.30
2019-05-23T18:51:54.830Z,21.30
2019-05-23T18:57:00.762Z,21.20
2019-05-23T19:02:06.882Z,21.20
2019-05-23T19:07:13.025Z,21.00
2019-05-23T19:12:19.434Z,21.00
2019-05-23T19:17:25.362Z,20.90
2019-05-23T19:22:31.648Z,20.90
2019-05-23T19:27:37.649Z,20.90
2019-05-23T19:32:43.942Z,20.70
2019-05-23T19:37:50.086Z,20.60
2019-05-23T19:42:56.826Z,20.40
2019-05-23T19:48:02.431Z,20.30
2019-05-23T19:53:08.213Z,20.30
2019-05-23T19:58:14.058Z,20.20
2019-05-23T20:03:22.123Z,20.10
2019-05-23T20:08:27.943Z,20.00
2019-05-23T20:13:33.809Z,20.10
2019-05-23T20:18:39.718Z,19.90
2019-05-23T20:23:45.504Z,19.90
2019-05-23T20:28:51.154Z,19.70
2019-05-23T20:33:57.051Z,19.60
2019-05-23T20:39:03.400Z,19.50
2019-05-23T20:44:09.247Z,19.30
2019-05-23T20:49:14.898Z,19.10
2019-05-23T20:54:20.605Z,19.00
2019-05-23T20:59:26.257Z,19.00
2019-05-23T21:04:32.471Z,18.80
2019-05-23T21:09:38.068Z,18.70
2019-05-23T21:14:43.693Z,18.50
2019-05-23T21:19:49.273Z,18.50
2019-05-23T21:24:55.032Z,18.40
2019-05-23T21:30:00.654Z,18.20
2019-05-23T21:35:07.266Z,18.10
2019-05-23T21:40:16.707Z,18.10
2019-05-23T21:45:22.448Z,18.10
2019-05-23T21:50:28.451Z,18.00
2019-05-23T21:55:37.822Z,18.00
2019-05-23T22:01:26.730Z,17.90
2019-05-23T22:06:36.411Z,17.80
2019-05-23T22:11:42.309Z,17.70
2019-05-23T22:16:48.186Z,17.60
2019-05-23T22:21:53.847Z,17.40
2019-05-23T22:26:59.576Z,17.40
2019-05-23T22:32:06.979Z,17.40
2019-05-23T22:37:24.226Z,17.60
2019-05-23T22:42:31.410Z,17.50
2019-05-23T22:47:36.999Z,17.60
2019-05-23T22:52:42.629Z,17.60
2019-05-23T22:57:48.274Z,17.40
2019-05-23T23:02:53.907Z,17.40
2019-05-23T23:07:59.999Z,17.40
2019-05-23T23:13:05.757Z,17.50
2019-05-23T23:18:11.431Z,17.50
2019-05-23T23:23:17.018Z,17.50
2019-05-23T23:28:22.704Z,17.50
2019-05-23T23:33:28.605Z,17.30
2019-05-23T23:38:34.214Z,17.10
2019-05-23T23:43:56.163Z,17.10
2019-05-23T23:49:04.746Z,17.30
2019-05-23T23:54:27.790Z,17.10
2019-05-23T23:59:32.672Z,17.00
